createdAt,value
2023-03-06T00:00:30.061Z,100928.22
2023-03-06T00:02:59.044Z,100924.59
2023-03-06T00:05:27.854Z,100917.34
2023-03-06T00:07:55.878Z,100914.44
2023-03-06T00:10:26.523Z,100912.53
2023-03-06T00:12:55.817Z,100900.75
2023-03-06T00:15:26.762Z,100909.59
2023-03-06T00:17:55.107Z,100905.88
2023-03-06T00:20:24.542Z,100897.84
2023-03-06T00:22:52.943Z,100902.09
2023-03-06T00:25:22.688Z,100889.59
2023-03-06T00:27:51.257Z,100887.91
2023-03-06T00:30:21.632Z,100890.56
2023-03-06T00:32:51.870Z,100878.91
2023-03-06T00:35:20.140Z,100889.25
2023-03-06T00:37:48.255Z,100874.91
2023-03-06T00:40:18.500Z,100876.63
2023-03-06T00:42:46.718Z,100868.84
2023-03-06T00:45:15.618Z,100873.34
2023-03-06T00:47:44.208Z,100873.22
2023-03-06T00:50:14.114Z,100864.50
2023-03-06T00:52:42.515Z,100864.13
2023-03-06T00:55:11.862Z,100862.53
2023-03-06T00:57:40.043Z,100859.78
2023-03-06T01:00:11.490Z,100860.84
2023-03-06T01:02:39.764Z,100852.84
2023-03-06T01:05:09.396Z,100853.69
2023-03-06T01:07:39.025Z,100851.84
2023-03-06T01:10:09.154Z,100849.09
2023-03-06T01:12:37.168Z,100842.88
2023-03-06T01:15:06.307Z,100840.94
2023-03-06T01:17:34.237Z,100838.50
2023-03-06T01:20:02.215Z,100834.63
2023-03-06T01:22:30.169Z,100835.81
2023-03-06T01:24:59.674Z,100834.22
2023-03-06T01:27:27.637Z,100835.09
2023-03-06T01:29:55.722Z,100829.75
2023-03-06T01:32:23.848Z,100836.81
2023-03-06T01:34:51.911Z,100824.44
2023-03-06T01:37:20.114Z,100825.00
2023-03-06T01:39:48.210Z,100825.88
2023-03-06T01:42:17.741Z,100829.28
2023-03-06T01:45:00.053Z,100812.28
2023-03-06T01:47:28.255Z,100809.63
2023-03-06T01:49:57.901Z,100805.00
2023-03-06T01:52:30.418Z,100807.44
2023-03-06T01:55:01.921Z,100805.63
2023-03-06T01:57:35.142Z,100807.66
2023-03-06T02:00:08.567Z,100798.72
2023-03-06T02:02:37.460Z,100792.13
2023-03-06T02:05:07.130Z,100782.34
2023-03-06T02:07:35.825Z,100786.06
2023-03-06T02:10:04.197Z,100785.94
2023-03-06T02:12:34.017Z,100785.09
2023-03-06T02:15:03.506Z,100778.69
2023-03-06T02:17:31.631Z,100771.75
2023-03-06T02:20:08.664Z,100770.78
2023-03-06T02:22:44.824Z,100774.41
2023-03-06T02:25:27.215Z,100768.97
2023-03-06T02:27:55.619Z,100757.41
2023-03-06T02:30:24.973Z,100750.88
2023-03-06T02:32:53.135Z,100752.69
2023-03-06T02:35:23.429Z,100741.41
2023-03-06T02:37:51.724Z,100743.84
2023-03-06T02:40:22.134Z,100739.25
2023-03-06T02:42:53.373Z,100735.47
2023-03-06T02:45:27.261Z,100722.72
2023-03-06T02:47:55.178Z,100730.47
2023-03-06T02:50:23.304Z,100723.81
2023-03-06T02:52:51.423Z,100727.06
2023-03-06T02:55:19.682Z,100716.13
2023-03-06T02:57:47.815Z,100715.91
2023-03-06T03:00:20.822Z,100713.09
2023-03-06T03:02:48.844Z,100713.22
2023-03-06T03:05:17.169Z,100711.78
2023-03-06T03:07:45.262Z,100705.59
2023-03-06T03:10:14.202Z,100702.31
2023-03-06T03:12:42.686Z,100694.44
2023-03-06T03:15:12.325Z,100701.09
2023-03-06T03:17:42.797Z,100688.00
2023-03-06T03:20:14.406Z,100690.78
2023-03-06T03:22:42.882Z,100688.38
2023-03-06T03:25:11.413Z,100680.22
2023-03-06T03:27:39.596Z,100689.34
2023-03-06T03:30:09.080Z,100673.44
2023-03-06T03:32:37.122Z,100677.81
2023-03-06T03:35:09.397Z,100671.59
2023-03-06T03:37:37.887Z,100669.06
2023-03-06T03:40:07.383Z,100666.25
2023-03-06T03:42:35.657Z,100658.25
2023-03-06T03:45:03.931Z,100656.44
2023-03-06T03:47:31.999Z,100652.66
2023-03-06T03:49:59.960Z,100647.31
2023-03-06T03:52:29.397Z,100642.84
2023-03-06T03:54:57.476Z,100645.38
2023-03-06T03:57:25.501Z,100637.34
2023-03-06T03:59:53.888Z,100632.91
2023-03-06T04:02:22.737Z,100640.91
2023-03-06T04:04:51.576Z,100644.53
2023-03-06T04:07:19.525Z,100633.84
2023-03-06T04:09:49.154Z,100624.97
2023-03-06T04:12:17.197Z,100633.00
2023-03-06T04:14:45.142Z,100620.84
2023-03-06T04:17:13.121Z,100615.66
2023-03-06T04:19:41.154Z,100618.19
2023-03-06T04:22:10.603Z,100620.84
2023-03-06T04:24:38.592Z,100612.00
2023-03-06T04:27:08.308Z,100609.22
2023-03-06T04:29:36.180Z,100612.75
2023-03-06T04:32:04.403Z,100608.84
2023-03-06T04:34:32.520Z,100607.13
2023-03-06T04:37:00.444Z,100599.03
2023-03-06T04:39:28.467Z,100609.69
2023-03-06T04:41:56.491Z,100599.72
2023-03-06T04:44:26.348Z,100594.25
2023-03-06T04:46:54.368Z,100595.00
2023-03-06T04:49:22.312Z,100593.16
2023-03-06T04:51:50.302Z,100589.38
2023-03-06T04:54:19.117Z,100588.28
2023-03-06T04:56:47.232Z,100581.13
2023-03-06T04:59:15.166Z,100588.91
2023-03-06T05:01:44.713Z,100592.94
2023-03-06T05:04:12.721Z,100589.13
2023-03-06T05:06:41.039Z,100595.69
2023-03-06T05:09:09.094Z,100586.72
2023-03-06T05:11:37.009Z,100585.88
2023-03-06T05:14:05.056Z,100584.78
2023-03-06T05:16:33.182Z,100583.19
2023-03-06T05:19:02.798Z,100577.75
2023-03-06T05:21:32.341Z,100574.94
2023-03-06T05:24:00.589Z,100575.91
2023-03-06T05:26:28.619Z,100574.81
2023-03-06T05:28:56.628Z,100562.44
2023-03-06T05:31:24.679Z,100568.47
2023-03-06T05:33:52.782Z,100567.53
2023-03-06T05:36:22.326Z,100567.53
2023-03-06T05:38:50.423Z,100562.03
2023-03-06T05:41:18.560Z,100557.41
2023-03-06T05:43:46.877Z,100559.69
2023-03-06T05:46:15.377Z,100555.94
2023-03-06T05:48:45.324Z,100550.47
2023-03-06T05:51:14.368Z,100549.38
2023-03-06T05:53:44.032Z,100538.53
2023-03-06T05:56:14.647Z,100540.22
2023-03-06T05:58:42.725Z,100532.50
2023-03-06T06:01:11.822Z,100539.38
2023-03-06T06:03:40.147Z,100527.84
2023-03-06T06:06:09.232Z,100528.00
2023-03-06T06:08:38.735Z,100537.22
2023-03-06T06:11:09.889Z,100523.28
2023-03-06T06:13:38.624Z,100526.94
2023-03-06T06:16:11.599Z,100524.25
2023-03-06T06:18:41.418Z,100519.38
2023-03-06T06:21:11.266Z,100522.19
2023-03-06T06:23:39.355Z,100524.88
2023-03-06T06:26:10.391Z,100525.72
2023-03-06T06:28:38.375Z,100532.03
2023-03-06T06:31:10.788Z,100529.09
2023-03-06T06:33:39.416Z,100529.22
2023-03-06T06:36:16.964Z,100548.31
2023-03-06T06:38:45.381Z,100517.84
2023-03-06T06:44:08.523Z,100514.72
2023-03-06T06:47:20.818Z,100508.28
2023-03-06T06:49:25.159Z,100505.72
2023-03-06T06:51:53.248Z,100506.19
2023-03-06T06:54:22.388Z,100513.81
2023-03-06T06:56:52.115Z,100506.66
2023-03-06T06:59:20.372Z,100521.59
2023-03-06T07:01:48.745Z,100504.84
2023-03-06T07:04:18.150Z,100497.69
2023-03-06T07:06:46.967Z,100497.47
2023-03-06T07:09:16.266Z,100496.88
2023-03-06T07:11:44.295Z,100494.47
2023-03-06T07:14:14.116Z,100486.72
2023-03-06T07:16:42.294Z,100492.75
2023-03-06T07:19:10.295Z,100492.50
2023-03-06T07:21:38.456Z,100488.03
2023-03-06T07:24:06.920Z,100493.97
2023-03-06T07:26:36.980Z,100492.84
2023-03-06T07:29:06.103Z,100502.66
2023-03-06T07:31:36.295Z,100492.91
2023-03-06T07:34:05.094Z,100490.69
2023-03-06T07:36:34.366Z,100502.81
2023-03-06T07:39:05.651Z,100484.84
2023-03-06T07:41:33.767Z,100494.56
2023-03-06T07:44:04.407Z,100480.34
2023-03-06T07:46:36.088Z,100484.78
2023-03-06T07:49:06.049Z,100493.78
2023-03-06T07:51:34.068Z,100503.22
2023-03-06T07:54:02.137Z,100483.53
2023-03-06T07:56:30.213Z,100484.13
2023-03-06T07:58:58.331Z,100476.97
2023-03-06T08:01:26.425Z,100481.31
2023-03-06T08:03:55.098Z,100485.69
2023-03-06T08:06:26.628Z,100474.44
2023-03-06T08:08:56.644Z,100480.38
2023-03-06T08:11:26.416Z,100467.84
2023-03-06T08:13:55.052Z,100478.31
2023-03-06T08:16:24.992Z,100471.56
2023-03-06T08:18:53.240Z,100478.91
2023-03-06T08:21:23.612Z,100476.41
2023-03-06T08:23:53.362Z,100482.34
2023-03-06T08:26:24.582Z,100473.63
2023-03-06T08:28:53.192Z,100489.44
2023-03-06T08:31:26.825Z,100481.84
2023-03-06T08:33:56.549Z,100481.41
2023-03-06T08:36:25.040Z,100482.69
2023-03-06T08:38:54.677Z,100471.44
2023-03-06T08:41:22.871Z,100478.59
2023-03-06T08:43:51.898Z,100480.88
2023-03-06T08:46:22.139Z,100469.22
2023-03-06T08:48:50.396Z,100469.22
2023-03-06T08:51:19.420Z,100468.69
2023-03-06T08:53:48.265Z,100468.53
2023-03-06T08:56:19.615Z,100462.50
2023-03-06T08:58:48.413Z,100474.06
2023-03-06T09:01:17.575Z,100459.97
2023-03-06T09:03:48.424Z,100464.91
2023-03-06T09:06:17.462Z,100457.19
2023-03-06T09:08:45.668Z,100461.25
2023-03-06T09:11:16.439Z,100456.06
2023-03-06T09:13:46.177Z,100460.72
2023-03-06T09:16:14.771Z,100452.13
2023-03-06T09:18:43.623Z,100456.63
2023-03-06T09:21:12.379Z,100449.84
2023-03-06T09:23:41.398Z,100443.09
2023-03-06T09:26:09.865Z,100460.31
2023-03-06T09:28:39.337Z,100442.25
2023-03-06T09:31:14.209Z,100442.38
2023-03-06T09:33:42.920Z,100449.56
2023-03-06T09:36:27.234Z,100446.59
2023-03-06T09:38:55.346Z,100447.00
2023-03-06T09:41:28.646Z,100442.53
2023-03-06T09:44:04.962Z,100444.91
2023-03-06T09:46:47.869Z,100442.19
2023-03-06T09:49:36.334Z,100446.72
2023-03-06T09:52:15.896Z,100443.06
2023-03-06T09:54:55.107Z,100433.34
2023-03-06T09:57:27.554Z,100443.19
2023-03-06T09:59:58.433Z,100442.19
2023-03-06T10:02:40.701Z,100434.94
2023-03-06T10:05:14.888Z,100444.63
2023-03-06T10:07:47.399Z,100438.34
2023-03-06T10:10:26.759Z,100431.88
2023-03-06T10:13:02.431Z,100434.00
2023-03-06T10:15:34.312Z,100443.19
2023-03-06T10:18:05.933Z,100434.06
2023-03-06T10:20:38.079Z,100433.69
2023-03-06T10:23:26.843Z,100431.78
2023-03-06T10:26:02.161Z,100426.88
2023-03-06T10:28:35.541Z,100426.91
2023-03-06T10:31:10.770Z,100417.59
2023-03-06T10:33:53.561Z,100413.94
2023-03-06T10:36:23.082Z,100418.56
2023-03-06T10:38:51.590Z,100415.88
2023-03-06T10:41:28.915Z,100420.22
2023-03-06T10:44:19.765Z,100411.78
2023-03-06T10:46:51.166Z,100418.28
2023-03-06T10:49:30.191Z,100419.81
2023-03-06T10:52:00.808Z,100412.09
2023-03-06T10:54:30.642Z,100407.41
2023-03-06T10:56:58.680Z,100425.59
2023-03-06T10:59:29.527Z,100419.38
2023-03-06T11:02:01.622Z,100417.00
2023-03-06T11:04:34.088Z,100400.22
2023-03-06T11:07:15.191Z,100407.16
2023-03-06T11:09:44.570Z,100399.97
2023-03-06T11:12:23.505Z,100399.13
2023-03-06T11:15:11.896Z,100395.72
2023-03-06T11:17:52.460Z,100402.47
2023-03-06T11:20:24.488Z,100392.91
2023-03-06T11:22:56.646Z,100396.28
2023-03-06T11:25:31.131Z,100394.88
2023-03-06T11:28:03.538Z,100389.38
2023-03-06T11:30:39.950Z,100396.31
2023-03-06T11:33:18.580Z,100393.38
2023-03-06T11:35:59.613Z,100396.75
2023-03-06T11:38:37.285Z,100383.34
2023-03-06T11:41:09.561Z,100381.41
2023-03-06T11:43:46.935Z,100388.44
2023-03-06T11:46:22.540Z,100403.25
2023-03-06T11:48:54.961Z,100375.16
2023-03-06T11:51:28.667Z,100379.56
2023-03-06T11:53:59.771Z,100376.56
2023-03-06T11:56:36.750Z,100377.53
2023-03-06T11:59:22.396Z,100377.56
2023-03-06T12:02:00.794Z,100391.22
2023-03-06T12:04:47.028Z,100368.28
2023-03-06T12:07:23.926Z,100362.50
2023-03-06T12:09:58.823Z,100368.13
2023-03-06T12:12:58.210Z,100349.19
2023-03-06T12:15:38.202Z,100360.59
2023-03-06T12:18:18.172Z,100372.84
2023-03-06T12:20:57.427Z,100355.50
2023-03-06T12:23:43.398Z,100347.03
2023-03-06T12:26:30.965Z,100347.88
2023-03-06T12:29:15.030Z,100365.34
2023-03-06T12:31:58.055Z,100370.56
2023-03-06T12:34:39.389Z,100344.50
2023-03-06T12:37:19.106Z,100351.16
2023-03-06T12:40:11.858Z,100344.28
2023-03-06T12:43:01.353Z,100340.50
2023-03-06T12:45:32.712Z,100329.38
2023-03-06T12:48:01.893Z,100351.22
2023-03-06T12:50:32.365Z,100328.97
2023-03-06T12:53:04.255Z,100319.09
2023-03-06T12:55:41.399Z,100332.31
2023-03-06T12:58:47.610Z,100317.34
2023-03-06T13:01:31.369Z,100342.00
2023-03-06T13:04:26.956Z,100319.81
2023-03-06T13:07:10.993Z,100315.03
2023-03-06T13:09:57.415Z,100300.75
2023-03-06T13:12:43.164Z,100312.72
2023-03-06T13:15:46.846Z,100312.66
2023-03-06T13:18:49.220Z,100304.13
2023-03-06T13:21:46.946Z,100295.75
2023-03-06T13:24:19.075Z,100285.75
2023-03-06T13:27:01.763Z,100308.19
2023-03-06T13:30:27.615Z,100288.47
2023-03-06T13:32:57.061Z,100289.97
2023-03-06T13:35:50.156Z,100286.75
2023-03-06T13:38:38.668Z,100285.13
2023-03-06T13:41:35.392Z,100276.13
2023-03-06T13:44:26.217Z,100270.75
2023-03-06T13:47:01.645Z,100281.06
2023-03-06T13:49:30.544Z,100268.41
2023-03-06T13:52:08.309Z,100263.03
2023-03-06T13:54:51.206Z,100253.44
2023-03-06T13:57:38.234Z,100255.97
2023-03-06T14:00:37.152Z,100256.69
2023-03-06T14:03:49.158Z,100249.47
2023-03-06T14:06:43.450Z,100263.00
2023-03-06T14:09:23.738Z,100266.59
2023-03-06T14:11:54.389Z,100258.31
2023-03-06T14:14:31.988Z,100262.72
2023-03-06T14:17:00.596Z,100247.56
2023-03-06T14:19:33.804Z,100243.19
2023-03-06T14:22:04.325Z,100238.00
2023-03-06T14:24:37.289Z,100232.78
2023-03-06T14:27:05.287Z,100238.84
2023-03-06T14:29:34.750Z,100245.59
2023-03-06T14:32:06.117Z,100249.53
2023-03-06T14:34:40.995Z,100248.25
2023-03-06T14:37:22.188Z,100211.94
2023-03-06T14:39:50.546Z,100226.72
2023-03-06T14:42:20.570Z,100237.16
2023-03-06T14:44:49.736Z,100218.81
2023-03-06T14:47:27.608Z,100231.78
2023-03-06T14:50:23.225Z,100218.25
2023-03-06T14:52:51.654Z,100225.03
2023-03-06T14:55:21.716Z,100210.69
2023-03-06T14:57:53.555Z,100206.03
2023-03-06T15:00:24.861Z,100216.00
2023-03-06T15:02:55.892Z,100206.59
2023-03-06T15:05:28.939Z,100211.19
2023-03-06T15:08:01.009Z,100215.81
2023-03-06T15:10:36.500Z,100216.91
2023-03-06T15:13:19.776Z,100215.88
2023-03-06T15:15:57.593Z,100210.19
2023-03-06T15:18:34.051Z,100174.84
2023-03-06T15:21:17.437Z,100179.63
2023-03-06T15:23:47.687Z,100188.78
2023-03-06T15:26:22.879Z,100180.78
2023-03-06T15:29:13.972Z,100178.16
2023-03-06T15:31:43.267Z,100179.16
2023-03-06T15:34:25.687Z,100178.22
2023-03-06T15:36:57.113Z,100190.38
2023-03-06T15:39:31.188Z,100158.31
2023-03-06T15:41:59.640Z,100164.38
2023-03-06T15:44:29.494Z,100160.84
2023-03-06T15:47:07.748Z,100142.84
2023-03-06T15:49:37.889Z,100155.47
2023-03-06T15:52:08.263Z,100180.28
2023-03-06T15:54:36.998Z,100171.38
2023-03-06T15:57:06.456Z,100164.91
2023-03-06T15:59:39.652Z,100136.56
2023-03-06T16:02:16.516Z,100133.06
2023-03-06T16:04:44.941Z,100144.16
2023-03-06T16:07:15.031Z,100132.91
2023-03-06T16:09:43.794Z,100128.91
2023-03-06T16:12:18.002Z,100149.22
2023-03-06T16:14:47.309Z,100118.69
2023-03-06T16:17:16.252Z,100123.16
2023-03-06T16:19:44.668Z,100128.03
2023-03-06T16:22:14.762Z,100118.34
2023-03-06T16:24:43.713Z,100109.38
2023-03-06T16:27:18.189Z,100105.13
2023-03-06T16:29:46.133Z,100107.13
2023-03-06T16:32:14.270Z,100116.41
2023-03-06T16:34:42.358Z,100120.19
2023-03-06T16:37:15.607Z,100111.75
2023-03-06T16:39:44.951Z,100103.72
2023-03-06T16:42:13.006Z,100097.13
2023-03-06T16:44:41.868Z,100107.41
2023-03-06T16:47:13.552Z,100100.63
2023-03-06T16:49:42.281Z,100114.72
2023-03-06T16:52:11.884Z,100101.22
2023-03-06T16:54:42.843Z,100106.56
2023-03-06T16:57:15.670Z,100096.69
2023-03-06T16:59:43.698Z,100113.03
2023-03-06T17:02:12.317Z,100093.91
2023-03-06T17:04:40.589Z,100139.19
2023-03-06T17:07:08.652Z,100106.28
2023-03-06T17:09:36.612Z,100094.59
2023-03-06T17:12:06.185Z,100109.78
2023-03-06T17:14:35.155Z,100092.34
2023-03-06T17:17:03.185Z,100093.03
2023-03-06T17:19:31.349Z,100090.38
2023-03-06T17:21:59.240Z,100098.09
2023-03-06T17:24:27.878Z,100107.69
2023-03-06T17:26:56.123Z,100095.28
2023-03-06T17:29:25.720Z,100082.09
2023-03-06T17:31:54.041Z,100096.44
2023-03-06T17:34:24.492Z,100089.09
2023-03-06T17:36:52.578Z,100074.63
2023-03-06T17:39:20.567Z,100073.66
2023-03-06T17:41:48.722Z,100077.00
2023-03-06T17:44:17.374Z,100068.03
2023-03-06T17:46:47.050Z,100063.94
2023-03-06T17:49:15.336Z,100068.16
2023-03-06T17:51:43.783Z,100091.66
2023-03-06T17:54:12.057Z,100086.31
2023-03-06T17:56:39.967Z,100061.69
2023-03-06T17:59:08.120Z,100056.63
2023-03-06T18:01:36.344Z,100069.44
2023-03-06T18:04:05.888Z,100052.44
2023-03-06T18:06:35.130Z,100050.88
2023-03-06T18:09:03.803Z,100056.78
2023-03-06T18:11:32.593Z,100053.13
2023-03-06T18:14:00.836Z,100044.84
2023-03-06T18:16:28.901Z,100052.84
2023-03-06T18:18:58.963Z,100065.47
2023-03-06T18:21:29.120Z,100069.72
2023-03-06T18:23:59.087Z,100053.13
2023-03-06T18:26:28.948Z,100049.44
2023-03-06T18:28:58.368Z,100052.84
2023-03-06T18:31:28.928Z,100070.81
2023-03-06T18:33:59.089Z,100064.94
2023-03-06T18:36:30.306Z,100046.09
2023-03-06T18:38:59.342Z,100052.25
2023-03-06T18:41:27.323Z,100063.78
2023-03-06T18:43:56.364Z,100052.13
2023-03-06T18:46:25.965Z,100050.00
2023-03-06T18:48:53.999Z,100066.19
2023-03-06T18:51:22.039Z,100057.88
2023-03-06T18:53:51.487Z,100056.50
2023-03-06T18:56:21.623Z,100057.63
2023-03-06T18:58:50.622Z,100064.09
2023-03-06T19:01:18.696Z,100049.75
2023-03-06T19:03:47.710Z,100051.16
2023-03-06T19:06:18.331Z,100052.13
2023-03-06T19:08:46.462Z,100040.47
2023-03-06T19:11:18.756Z,100044.69
2023-03-06T19:13:46.673Z,100043.41
2023-03-06T19:16:19.227Z,100032.31
2023-03-06T19:18:47.268Z,100034.25
2023-03-06T19:21:17.020Z,100044.81
2023-03-06T19:23:45.468Z,100057.34
2023-03-06T19:26:15.463Z,100031.16
2023-03-06T19:28:44.587Z,100043.69
2023-03-06T19:31:15.954Z,100030.63
2023-03-06T19:33:43.917Z,100013.03
2023-03-06T19:36:14.917Z,100024.56
2023-03-06T19:38:43.545Z,100008.66
2023-03-06T19:41:13.534Z,100040.59
2023-03-06T19:43:43.852Z,100018.50
2023-03-06T19:46:13.080Z,100009.06
2023-03-06T19:48:41.050Z,100009.22
2023-03-06T19:51:09.466Z,100010.91
2023-03-06T19:53:38.825Z,99992.03
2023-03-06T19:56:09.521Z,99993.19
2023-03-06T19:58:37.549Z,99982.50
2023-03-06T20:01:09.474Z,99977.00
2023-03-06T20:03:37.546Z,99991.47
2023-03-06T20:06:09.195Z,99990.38
2023-03-06T20:08:37.751Z,99994.88
2023-03-06T20:11:06.220Z,99983.59
2023-03-06T20:13:34.249Z,99976.84
2023-03-06T20:16:04.646Z,99978.69
2023-03-06T20:18:34.500Z,99988.94
2023-03-06T20:21:04.506Z,99990.38
2023-03-06T20:23:33.163Z,99963.06
2023-03-06T20:26:03.562Z,99964.31
2023-03-06T20:28:32.069Z,99953.78
2023-03-06T20:31:00.244Z,99961.38
2023-03-06T20:33:28.201Z,99973.91
2023-03-06T20:35:57.660Z,99962.50
2023-03-06T20:38:26.160Z,99962.81
2023-03-06T20:41:05.632Z,99959.81
2023-03-06T20:43:47.516Z,99952.94
2023-03-06T20:46:16.253Z,99952.69
2023-03-06T20:48:44.800Z,99943.50
2023-03-06T20:51:18.925Z,99942.81
2023-03-06T20:53:49.052Z,99937.16
2023-03-06T20:56:19.158Z,99947.03
2023-03-06T20:58:47.260Z,99954.59
2023-03-06T21:01:20.256Z,99924.50
2023-03-06T21:03:49.349Z,99921.69
2023-03-06T21:06:20.041Z,99920.84
2023-03-06T21:08:48.963Z,99916.34
2023-03-06T21:11:17.726Z,99915.50
2023-03-06T21:13:45.976Z,99918.34
2023-03-06T21:16:15.778Z,99906.81
2023-03-06T21:18:44.413Z,99906.81
2023-03-06T21:21:14.340Z,99915.09
2023-03-06T21:23:44.017Z,99889.78
2023-03-06T21:26:13.634Z,99908.47
2023-03-06T21:28:41.632Z,99910.16
2023-03-06T21:31:12.421Z,99897.78
2023-03-06T21:33:40.840Z,99901.97
2023-03-06T21:36:09.207Z,99909.16
2023-03-06T21:38:37.819Z,99895.78
2023-03-06T21:41:12.099Z,99899.47
2023-03-06T21:43:40.680Z,99900.31
2023-03-06T21:46:09.144Z,99901.13
2023-03-06T21:48:37.763Z,99889.63
2023-03-06T21:51:10.226Z,99893.28
2023-03-06T21:53:41.192Z,99906.22
2023-03-06T21:56:11.405Z,99897.47
2023-03-06T21:58:39.558Z,99877.41
2023-03-06T22:01:11.214Z,99873.41
2023-03-06T22:03:40.158Z,99876.41
2023-03-06T22:06:10.158Z,99879.75
2023-03-06T22:08:39.232Z,99874.00
2023-03-06T22:11:11.095Z,99868.66
2023-03-06T22:13:39.661Z,99870.22
2023-03-06T22:16:08.254Z,99856.69
2023-03-06T22:18:36.540Z,99852.34
2023-03-06T22:21:09.026Z,99861.88
2023-03-06T22:23:37.106Z,99852.47
2023-03-06T22:26:05.644Z,99848.56
2023-03-06T22:28:35.452Z,99855.31
2023-03-06T22:31:08.385Z,99838.28
2023-03-06T22:33:36.521Z,99847.44
2023-03-06T22:36:07.594Z,99846.59
2023-03-06T22:38:36.256Z,99836.88
2023-03-06T22:41:04.740Z,99833.25
2023-03-06T22:43:35.441Z,99830.41
2023-03-06T22:46:04.556Z,99841.53
2023-03-06T22:48:33.142Z,99828.59
2023-03-06T22:51:04.785Z,99825.50
2023-03-06T22:53:32.834Z,99821.00
2023-03-06T22:56:01.001Z,99812.16
2023-03-06T22:58:35.632Z,99827.19
2023-03-06T23:01:09.994Z,99811.16
2023-03-06T23:03:39.235Z,99815.81
2023-03-06T23:06:09.390Z,99807.47
2023-03-06T23:08:37.564Z,99801.19
2023-03-06T23:11:10.033Z,99807.19
2023-03-06T23:13:39.043Z,99805.53
2023-03-06T23:16:10.478Z,99804.69
2023-03-06T23:18:39.138Z,99804.97
2023-03-06T23:21:08.849Z,99801.84
2023-03-06T23:23:37.362Z,99807.75
2023-03-06T23:26:05.722Z,99803.25
2023-03-06T23:28:34.914Z,99781.47
2023-03-06T23:31:09.610Z,99790.16
2023-03-06T23:33:39.841Z,99784.81
2023-03-06T23:36:10.361Z,99790.63
2023-03-06T23:38:38.653Z,99781.47
2023-03-06T23:41:08.374Z,99790.88
2023-03-06T23:43:36.558Z,99782.16
2023-03-06T23:46:06.400Z,99780.69
2023-03-06T23:48:37.256Z,99770.50
2023-03-06T23:51:07.412Z,99769.50
2023-03-06T23:53:35.797Z,99769.50
2023-03-06T23:56:06.623Z,99763.44
2023-03-06T23:58:35.267Z,99759.81
